TimePDT,TemperatureF,Dew PointF,Humidity,Sea Level PressureIn,VisibilityMPH,Wind Direction,Wind SpeedMPH,Gust SpeedMPH,PrecipitationIn,Events,Conditions,WindDirDegrees,DateUTC
12:53 AM,69.1,57.0,65,29.99,10.0,Calm,Calm,-,N/A,,Clear,0,2013-08-05 07:53:00
1:53 AM,68.0,55.9,65,29.99,10.0,Calm,Calm,-,N/A,,Clear,0,2013-08-05 08:53:00
2:53 AM,66.0,55.9,70,29.98,10.0,Calm,Calm,-,N/A,,Clear,0,2013-08-05 09:53:00
3:53 AM,64.9,55.9,73,29.98,10.0,Calm,Calm,-,N/A,,Clear,0,2013-08-05 10:53:00
4:53 AM,63.0,55.9,78,29.99,10.0,Calm,Calm,-,N/A,,Clear,0,2013-08-05 11:53:00
5:53 AM,62.1,55.0,78,29.99,10.0,Calm,Calm,-,N/A,,Clear,0,2013-08-05 12:53:00
6:53 AM,63.0,55.9,78,30.01,10.0,Calm,Calm,-,N/A,,Clear,0,2013-08-05 13:53:00
7:53 AM,64.9,55.9,73,30.01,10.0,NNW,9.2,-,N/A,,Clear,330,2013-08-05 14:53:00
8:53 AM,69.1,57.0,65,30.01,10.0,NW,3.5,-,N/A,,Clear,320,2013-08-05 15:53:00
9:53 AM,72.0,55.9,57,30.02,10.0,Variable,3.5,-,N/A,,Clear,0,2013-08-05 16:53:00
10:53 AM,75.0,55.9,51,30.01,10.0,Variable,4.6,-,N/A,,Clear,0,2013-08-05 17:53:00
11:53 AM,77.0,55.9,48,30.01,10.0,Variable,4.6,-,N/A,,Clear,0,2013-08-05 18:53:00
12:53 PM,80.1,55.9,43,30.00,10.0,Variable,6.9,-,N/A,,Clear,0,2013-08-05 19:53:00
1:53 PM,81.0,55.0,41,29.99,10.0,WNW,5.8,-,N/A,,Clear,290,2013-08-05 20:53:00
2:53 PM,84.0,55.0,37,29.98,10.0,Variable,4.6,-,N/A,,Clear,0,2013-08-05 21:53:00
3:53 PM,84.9,55.9,37,29.95,10.0,Variable,5.8,-,N/A,,Clear,0,2013-08-05 22:53:00
4:53 PM,84.9,55.9,37,29.94,10.0,NNW,4.6,-,N/A,,Partly Cloudy,340,2013-08-05 23:53:00
5:53 PM,84.9,54.0,34,29.93,10.0,NW,6.9,-,N/A,,Partly Cloudy,320,2013-08-06 00:53:00
6:53 PM,82.0,54.0,38,29.92,10.0,NNW,5.8,-,N/A,,Clear,330,2013-08-06 01:53:00
7:53 PM,78.1,54.0,43,29.93,10.0,NNW,5.8,-,N/A,,Clear,330,2013-08-06 02:53:00
8:53 PM,77.0,54.0,45,29.94,10.0,NNW,3.5,-,N/A,,Clear,330,2013-08-06 03:53:00
9:53 PM,73.0,55.0,53,29.94,10.0,NW,4.6,-,N/A,,Clear,320,2013-08-06 04:53:00
10:53 PM,70.0,55.9,61,29.95,10.0,Calm,Calm,-,N/A,,Clear,0,2013-08-06 05:53:00
11:53 PM,70.0,54.0,57,29.96,10.0,Calm,Calm,-,N/A,,Clear,0,2013-08-06 06:53:00